Time;durP1;ratioP1;P1;durP2;ratioP2;P2;SDS_P1;SDS_P2;PMS_P1;PMS_P2;Temp;Humidity;BMP_temperature;BMP_pressure;BME280_temperature;BME280_humidity;BME280_pressure;Samples;Min_cycle;Max_cycle;Signal;HPM_P1;HPM_P2
2023/05/25 00:01:17;;;;;;;7.50;3.75;;;;;;;;;;6195696;28;20212;-82
2023/05/25 00:04:20;;;;;;;6.57;3.40;;;;;;;;;;6197427;28;20405;-82
2023/05/25 00:07:22;;;;;;;3.70;2.70;;;;;;;;;;6195626;28;20579;-83
2023/05/25 00:10:23;;;;;;;5.18;3.58;;;;;;;;;;6196731;28;20062;-82
2023/05/25 00:13:25;;;;;;;4.20;2.88;;;;;;;;;;6196982;28;20226;-82
2023/05/25 00:16:28;;;;;;;5.70;2.88;;;;;;;;;;6195377;28;20094;-84
2023/05/25 00:19:31;;;;;;;5.60;3.00;;;;;;;;;;6194575;28;20101;-82
2023/05/25 00:22:33;;;;;;;4.55;3.13;;;;;;;;;;6197947;28;20641;-82
2023/05/25 00:25:34;;;;;;;6.10;3.67;;;;;;;;;;6196296;28;20054;-81
2023/05/25 00:28:36;;;;;;;4.57;3.28;;;;;;;;;;6197041;28;20050;-81
2023/05/25 00:31:39;;;;;;;5.80;2.90;;;;;;;;;;6195605;28;20208;-82
2023/05/25 00:34:41;;;;;;;4.13;2.73;;;;;;;;;;6192207;28;20069;-82
2023/05/25 00:37:43;;;;;;;4.50;3.00;;;;;;;;;;6198661;28;20743;-81
2023/05/25 00:40:45;;;;;;;4.75;2.90;;;;;;;;;;6195296;28;20046;-82
2023/05/25 00:43:47;;;;;;;4.53;2.80;;;;;;;;;;6196830;28;20109;-81
2023/05/25 00:46:51;;;;;;;4.68;2.53;;;;;;;;;;6186805;28;20058;-82
2023/05/25 00:49:53;;;;;;;4.15;2.95;;;;;;;;;;6170556;28;20054;-81
2023/05/25 00:52:55;;;;;;;4.10;2.95;;;;;;;;;;6184205;28;20069;-82
2023/05/25 00:56:02;;;;;;;4.90;3.10;;;;;;;;;;6198640;28;20062;-82
2023/05/25 00:59:06;;;;;;;5.45;3.63;;;;;;;;;;6195018;28;20286;-80
2023/05/25 01:02:12;;;;;;;6.80;3.83;;;;;;;;;;6195145;28;20349;-81
2023/05/25 01:05:14;;;;;;;4.78;3.55;;;;;;;;;;6194988;28;20243;-82
2023/05/25 01:08:17;;;;;;;5.57;3.60;;;;;;;;;;6193883;28;20126;-80
2023/05/25 01:11:20;;;;;;;6.10;3.00;;;;;;;;;;6201124;28;20051;-81
2023/05/25 01:14:23;;;;;;;5.38;3.60;;;;;;;;;;6195079;28;20043;-82
2023/05/25 01:17:27;;;;;;;5.63;3.38;;;;;;;;;;6193670;28;20547;-81
2023/05/25 01:20:29;;;;;;;5.28;3.55;;;;;;;;;;6191324;28;20118;-80
2023/05/25 01:23:33;;;;;;;4.45;3.00;;;;;;;;;;6195566;28;20050;-79
2023/05/25 01:26:44;;;;;;;4.18;3.47;;;;;;;;;;6195067;28;20052;-81
2023/05/25 01:29:46;;;;;;;5.57;2.88;;;;;;;;;;6188856;28;20066;-82
2023/05/25 01:32:49;;;;;;;3.85;2.53;;;;;;;;;;6190874;28;20274;-80
2023/05/25 01:35:51;;;;;;;3.25;2.20;;;;;;;;;;6194511;28;20053;-78
2023/05/25 01:38:54;;;;;;;4.28;2.40;;;;;;;;;;6196367;28;20054;-82
2023/05/25 01:41:56;;;;;;;3.90;2.47;;;;;;;;;;6194875;28;20073;-79
2023/05/25 01:44:58;;;;;;;3.20;2.28;;;;;;;;;;6195258;28;20875;-81
2023/05/25 01:48:06;;;;;;;3.65;2.47;;;;;;;;;;6193004;28;20322;-80
2023/05/25 01:51:15;;;;;;;3.55;2.30;;;;;;;;;;6191329;28;20381;-81
2023/05/25 01:54:20;;;;;;;5.72;2.67;;;;;;;;;;6194504;28;20050;-81
2023/05/25 01:57:22;;;;;;;4.05;2.58;;;;;;;;;;6189652;28;20064;-80
2023/05/25 02:00:25;;;;;;;9.43;2.70;;;;;;;;;;6193509;28;20062;-82
2023/05/25 02:03:27;;;;;;;3.42;2.35;;;;;;;;;;6194546;28;20271;-80
2023/05/25 02:06:29;;;;;;;4.47;2.65;;;;;;;;;;6193593;28;20074;-79
2023/05/25 02:09:32;;;;;;;4.70;2.65;;;;;;;;;;6194727;28;20227;-82
2023/05/25 02:12:33;;;;;;;4.83;3.00;;;;;;;;;;6194276;28;20145;-80
2023/05/25 02:15:35;;;;;;;7.07;2.83;;;;;;;;;;6196995;28;20481;-81
2023/05/25 02:18:37;;;;;;;3.95;2.47;;;;;;;;;;6191604;28;20061;-79
2023/05/25 02:21:38;;;;;;;4.13;2.53;;;;;;;;;;6192931;28;20054;-80
2023/05/25 02:24:41;;;;;;;3.72;2.80;;;;;;;;;;6195633;28;20318;-83
2023/05/25 02:27:43;;;;;;;7.05;3.00;;;;;;;;;;6195025;28;20100;-82
2023/05/25 02:30:45;;;;;;;5.50;3.30;;;;;;;;;;6192142;28;20061;-82
2023/05/25 02:33:46;;;;;;;5.43;3.15;;;;;;;;;;6194045;28;20444;-81
2023/05/25 02:36:48;;;;;;;4.97;3.22;;;;;;;;;;6194353;28;20381;-83
2023/05/25 02:39:51;;;;;;;4.28;3.30;;;;;;;;;;6192292;28;20116;-82
2023/05/25 02:42:53;;;;;;;5.40;2.60;;;;;;;;;;6195087;28;20062;-82
2023/05/25 02:45:54;;;;;;;3.83;3.00;;;;;;;;;;6193674;28;20330;-83
2023/05/25 02:48:57;;;;;;;5.57;2.90;;;;;;;;;;6190986;28;20050;-83
2023/05/25 02:51:59;;;;;;;6.00;3.07;;;;;;;;;;6193428;28;20327;-82
2023/05/25 02:55:02;;;;;;;5.82;3.15;;;;;;;;;;6192514;28;20693;-81
2023/05/25 02:58:04;;;;;;;3.97;2.90;;;;;;;;;;6192830;28;20050;-82
2023/05/25 03:01:09;;;;;;;3.72;2.70;;;;;;;;;;6193651;28;20516;-82
2023/05/25 03:04:10;;;;;;;5.18;2.90;;;;;;;;;;6193246;28;20046;-83
2023/05/25 03:07:12;;;;;;;5.18;3.00;;;;;;;;;;6192219;28;20334;-83
2023/05/25 03:10:15;;;;;;;5.07;3.22;;;;;;;;;;6190825;28;20082;-83
2023/05/25 03:13:17;;;;;;;6.50;3.50;;;;;;;;;;6188612;28;20062;-81
2023/05/25 03:16:18;;;;;;;7.28;3.70;;;;;;;;;;6191644;28;20821;-82
2023/05/25 03:19:20;;;;;;;6.45;3.17;;;;;;;;;;6193613;28;20343;-81
2023/05/25 03:22:22;;;;;;;4.60;3.40;;;;;;;;;;6193980;28;20354;-82
2023/05/25 03:25:25;;;;;;;5.78;3.47;;;;;;;;;;6193118;28;20069;-82
2023/05/25 03:28:27;;;;;;;5.20;3.42;;;;;;;;;;6193377;28;20304;-82
2023/05/25 03:31:29;;;;;;;7.15;3.92;;;;;;;;;;6194311;28;20330;-82
2023/05/25 03:34:33;;;;;;;6.32;3.55;;;;;;;;;;6192856;28;20358;-82
2023/05/25 03:37:35;;;;;;;5.43;3.80;;;;;;;;;;6191916;28;20046;-81
2023/05/25 03:40:38;;;;;;;6.18;3.63;;;;;;;;;;6193777;28;20054;-80
2023/05/25 03:43:39;;;;;;;10.40;4.40;;;;;;;;;;6194326;28;20205;-81
2023/05/25 03:46:41;;;;;;;5.30;3.90;;;;;;;;;;6192098;28;20381;-81
2023/05/25 03:49:43;;;;;;;7.63;3.55;;;;;;;;;;6193510;28;20060;-80
2023/05/25 03:52:44;;;;;;;7.00;3.33;;;;;;;;;;6192063;28;20054;-80
2023/05/25 03:55:50;;;;;;;6.32;3.63;;;;;;;;;;6188698;28;20331;-80
2023/05/25 03:58:52;;;;;;;5.38;3.72;;;;;;;;;;6194399;28;20126;-81
2023/05/25 04:01:54;;;;;;;5.70;3.83;;;;;;;;;;6196884;28;20117;-83
2023/05/25 04:04:56;;;;;;;7.90;3.33;;;;;;;;;;6198183;28;20054;-83
2023/05/25 04:07:58;;;;;;;9.10;3.85;;;;;;;;;;6194977;28;20047;-81
2023/05/25 04:11:01;;;;;;;5.38;3.63;;;;;;;;;;6197103;28;20228;-83
2023/05/25 04:14:02;;;;;;;8.85;4.10;;;;;;;;;;6197674;28;20128;-82
2023/05/25 04:17:05;;;;;;;8.40;3.80;;;;;;;;;;6197693;28;20046;-81
2023/05/25 04:20:08;;;;;;;5.22;3.20;;;;;;;;;;6194445;28;20208;-82
2023/05/25 04:23:10;;;;;;;5.88;3.58;;;;;;;;;;6195557;28;20073;-81
2023/05/25 04:26:14;;;;;;;8.00;3.70;;;;;;;;;;6198352;28;20050;-81
2023/05/25 04:29:16;;;;;;;5.95;3.63;;;;;;;;;;6198133;28;20157;-81
2023/05/25 04:32:17;;;;;;;5.50;3.72;;;;;;;;;;6198296;28;20054;-84
2023/05/25 04:35:20;;;;;;;6.85;3.90;;;;;;;;;;6196337;28;20066;-80
2023/05/25 04:38:21;;;;;;;8.10;3.75;;;;;;;;;;6194771;28;20056;-82
2023/05/25 04:41:25;;;;;;;6.35;3.83;;;;;;;;;;6197822;28;20046;-80
2023/05/25 04:44:28;;;;;;;5.00;3.80;;;;;;;;;;6197961;28;20365;-82
2023/05/25 04:47:30;;;;;;;7.18;3.85;;;;;;;;;;6193954;28;20156;-81
2023/05/25 04:50:31;;;;;;;6.45;3.92;;;;;;;;;;6195987;28;20062;-81
2023/05/25 04:53:35;;;;;;;6.18;3.22;;;;;;;;;;6197608;28;20056;-82
2023/05/25 04:56:38;;;;;;;5.97;3.60;;;;;;;;;;6194358;28;20070;-81
2023/05/25 04:59:39;;;;;;;7.07;3.33;;;;;;;;;;6194291;28;20108;-82
2023/05/25 05:02:41;;;;;;;6.95;3.38;;;;;;;;;;6194023;28;20204;-81
2023/05/25 05:05:43;;;;;;;8.23;3.45;;;;;;;;;;6196270;28;20121;-81
2023/05/25 05:08:45;;;;;;;6.95;3.50;;;;;;;;;;6191901;28;20128;-79
2023/05/25 05:11:48;;;;;;;7.10;3.97;;;;;;;;;;6194959;28;20050;-80
2023/05/25 05:14:50;;;;;;;8.20;3.67;;;;;;;;;;6196325;28;20061;-78
2023/05/25 05:17:51;;;;;;;6.07;3.90;;;;;;;;;;6193726;28;20516;-82
2023/05/25 05:20:53;;;;;;;6.72;3.80;;;;;;;;;;6194962;28;20411;-80
2023/05/25 05:23:55;;;;;;;6.53;3.78;;;;;;;;;;6196819;28;20054;-78
2023/05/25 05:26:58;;;;;;;6.00;3.72;;;;;;;;;;6195513;28;20227;-81
2023/05/25 05:30:00;;;;;;;5.73;3.40;;;;;;;;;;6192088;28;20055;-83
2023/05/25 05:33:02;;;;;;;7.32;3.90;;;;;;;;;;6193440;28;20058;-82
2023/05/25 05:36:04;;;;;;;7.35;3.45;;;;;;;;;;6194933;28;20053;-81
2023/05/25 05:39:06;;;;;;;9.48;3.72;;;;;;;;;;6196245;28;20081;-82
2023/05/25 05:42:09;;;;;;;7.40;3.60;;;;;;;;;;6194510;28;20393;-80
2023/05/25 05:45:11;;;;;;;6.70;3.30;;;;;;;;;;6195923;28;20322;-79
2023/05/25 05:48:12;;;;;;;5.70;3.47;;;;;;;;;;6192118;28;20309;-81
2023/05/25 05:51:14;;;;;;;4.72;3.17;;;;;;;;;;6192193;28;20054;-82
2023/05/25 05:54:16;;;;;;;6.30;3.75;;;;;;;;;;6196264;28;20058;-78
2023/05/25 05:57:19;;;;;;;7.35;3.45;;;;;;;;;;6194431;28;20066;-81
2023/05/25 06:00:21;;;;;;;5.53;3.38;;;;;;;;;;6192987;28;20241;-82
2023/05/25 06:03:23;;;;;;;7.97;3.55;;;;;;;;;;6194994;28;20064;-81
2023/05/25 06:06:26;;;;;;;9.60;3.28;;;;;;;;;;6193739;28;20108;-83
2023/05/25 06:09:28;;;;;;;5.55;3.25;;;;;;;;;;6195248;28;20075;-83
2023/05/25 06:12:30;;;;;;;6.47;3.03;;;;;;;;;;6193094;28;20054;-82
2023/05/25 06:15:32;;;;;;;4.63;3.40;;;;;;;;;;6193536;28;20066;-83
2023/05/25 06:18:34;;;;;;;5.57;3.80;;;;;;;;;;6193541;28;20054;-80
2023/05/25 06:21:36;;;;;;;6.95;3.40;;;;;;;;;;6192414;28;20334;-83
2023/05/25 06:24:38;;;;;;;6.88;3.40;;;;;;;;;;6192807;28;20055;-83
2023/05/25 06:27:40;;;;;;;6.47;4.47;;;;;;;;;;6192707;28;20145;-80
2023/05/25 06:30:42;;;;;;;7.30;3.90;;;;;;;;;;6195181;28;20050;-83
2023/05/25 06:33:44;;;;;;;7.07;3.50;;;;;;;;;;6191299;28;20398;-83
2023/05/25 06:36:46;;;;;;;11.05;3.83;;;;;;;;;;6193581;28;20081;-81
2023/05/25 06:39:48;;;;;;;7.57;3.45;;;;;;;;;;6191931;28;20078;-81
2023/05/25 06:42:51;;;;;;;8.48;3.45;;;;;;;;;;6197739;28;20042;-81
2023/05/25 06:45:52;;;;;;;7.13;3.50;;;;;;;;;;6196004;28;20113;-80
2023/05/25 06:48:54;;;;;;;8.45;3.95;;;;;;;;;;6195652;28;20046;-81
2023/05/25 06:51:56;;;;;;;7.18;3.85;;;;;;;;;;6193882;28;20058;-84
2023/05/25 06:54:57;;;;;;;6.88;4.07;;;;;;;;;;6191735;28;20571;-82
2023/05/25 06:58:00;;;;;;;5.93;3.22;;;;;;;;;;6196615;28;20050;-81
2023/05/25 07:01:02;;;;;;;5.88;3.80;;;;;;;;;;6192974;28;20140;-82
2023/05/25 07:04:04;;;;;;;7.13;3.67;;;;;;;;;;6194048;28;20055;-83
2023/05/25 07:07:06;;;;;;;4.97;3.63;;;;;;;;;;6194017;28;20054;-81
2023/05/25 07:10:09;;;;;;;6.93;3.83;;;;;;;;;;6194192;28;20137;-80
2023/05/25 07:13:12;;;;;;;5.47;3.88;;;;;;;;;;6193503;28;20061;-81
2023/05/25 07:16:14;;;;;;;7.60;4.03;;;;;;;;;;6194181;28;20054;-82
2023/05/25 07:19:15;;;;;;;6.82;3.90;;;;;;;;;;6192971;28;20114;-79
2023/05/25 07:22:18;;;;;;;5.57;3.72;;;;;;;;;;6193456;28;20219;-81
2023/05/25 07:25:20;;;;;;;7.55;4.10;;;;;;;;;;6193571;28;20262;-83
2023/05/25 07:28:23;;;;;;;5.43;3.60;;;;;;;;;;6191437;28;20204;-83
2023/05/25 07:31:24;;;;;;;6.40;3.78;;;;;;;;;;6195347;28;20078;-81
2023/05/25 07:34:26;;;;;;;5.68;3.53;;;;;;;;;;6194326;28;20116;-81
2023/05/25 07:37:28;;;;;;;6.35;2.85;;;;;;;;;;6195544;28;20062;-83
2023/05/25 07:40:29;;;;;;;6.50;3.25;;;;;;;;;;6197165;28;20160;-83
2023/05/25 07:43:32;;;;;;;4.70;2.85;;;;;;;;;;6199502;28;20058;-82
2023/05/25 07:46:34;;;;;;;4.95;3.10;;;;;;;;;;6200225;28;20117;-81
2023/05/25 07:49:36;;;;;;;5.20;3.83;;;;;;;;;;6196997;28;20058;-82
2023/05/25 07:52:38;;;;;;;7.45;3.95;;;;;;;;;;6196827;28;20074;-81
2023/05/25 07:55:39;;;;;;;5.60;3.90;;;;;;;;;;6196921;28;20078;-84
2023/05/25 07:58:42;;;;;;;4.90;3.85;;;;;;;;;;6198849;28;20058;-82
2023/05/25 08:01:44;;;;;;;5.07;4.00;;;;;;;;;;6198033;28;20104;-82
2023/05/25 08:04:46;;;;;;;6.95;4.00;;;;;;;;;;6196618;28;20140;-81
2023/05/25 08:07:47;;;;;;;10.18;4.32;;;;;;;;;;6199915;28;20038;-83
2023/05/25 08:10:49;;;;;;;4.97;4.05;;;;;;;;;;6197477;28;20270;-82
2023/05/25 08:13:52;;;;;;;5.07;3.75;;;;;;;;;;6195768;28;20126;-82
2023/05/25 08:16:54;;;;;;;6.13;4.20;;;;;;;;;;6197452;28;20216;-80
2023/05/25 08:19:56;;;;;;;6.80;4.03;;;;;;;;;;6174494;28;20114;-78
2023/05/25 08:22:58;;;;;;;6.32;4.60;;;;;;;;;;6173327;28;20069;-80
2023/05/25 08:26:00;;;;;;;5.07;4.30;;;;;;;;;;6188415;28;20078;-83
2023/05/25 08:29:03;;;;;;;6.50;4.25;;;;;;;;;;6171931;28;20228;-82
2023/05/25 08:32:05;;;;;;;6.68;4.22;;;;;;;;;;6177276;28;20059;-81
2023/05/25 08:35:08;;;;;;;4.60;4.00;;;;;;;;;;6198447;28;20258;-82
2023/05/25 08:38:10;;;;;;;7.28;4.20;;;;;;;;;;6189206;28;20058;-84
2023/05/25 08:41:12;;;;;;;4.82;3.92;;;;;;;;;;6171021;28;20331;-84
2023/05/25 08:44:15;;;;;;;5.72;4.35;;;;;;;;;;6174319;28;20043;-82
2023/05/25 08:47:19;;;;;;;5.82;4.90;;;;;;;;;;6172794;28;20051;-81
2023/05/25 08:50:21;;;;;;;8.38;4.28;;;;;;;;;;6171805;28;20046;-81
2023/05/25 08:53:23;;;;;;;6.55;3.70;;;;;;;;;;6173536;28;20050;-82
2023/05/25 08:56:26;;;;;;;5.22;4.03;;;;;;;;;;6170202;28;20172;-85
2023/05/25 08:59:34;;;;;;;6.78;4.30;;;;;;;;;;6174110;28;20310;-84
2023/05/25 09:02:39;;;;;;;6.88;4.75;;;;;;;;;;6180787;28;20273;-83
2023/05/25 09:05:42;;;;;;;4.95;4.30;;;;;;;;;;6176763;28;20050;-83
2023/05/25 09:08:44;;;;;;;11.00;5.07;;;;;;;;;;6171996;28;20346;-83
2023/05/25 09:11:46;;;;;;;6.25;4.50;;;;;;;;;;6171309;28;20062;-83
2023/05/25 09:14:49;;;;;;;6.63;4.80;;;;;;;;;;6173366;28;20059;-84
2023/05/25 09:17:51;;;;;;;6.60;5.10;;;;;;;;;;6169155;28;20057;-83
2023/05/25 09:20:53;;;;;;;7.05;4.90;;;;;;;;;;6172956;28;20362;-83
2023/05/25 09:23:55;;;;;;;6.35;4.57;;;;;;;;;;6171394;28;20122;-84
2023/05/25 09:26:57;;;;;;;7.00;4.90;;;;;;;;;;6173110;28;20136;-81
2023/05/25 09:30:02;;;;;;;9.52;5.00;;;;;;;;;;6175667;28;20113;-83
2023/05/25 09:33:10;;;;;;;7.50;4.93;;;;;;;;;;6179421;28;20231;-85
2023/05/25 09:36:13;;;;;;;5.50;4.47;;;;;;;;;;6172639;28;20047;-84
2023/05/25 09:39:15;;;;;;;8.52;4.88;;;;;;;;;;6174388;28;20074;-83
2023/05/25 09:42:17;;;;;;;6.63;4.43;;;;;;;;;;6169705;28;20089;-83
2023/05/25 09:45:23;;;;;;;8.32;5.05;;;;;;;;;;6172358;28;20066;-84
2023/05/25 09:48:25;;;;;;;9.18;5.25;;;;;;;;;;6172230;28;20042;-85
2023/05/25 09:51:26;;;;;;;11.00;4.55;;;;;;;;;;6168883;28;20130;-84
2023/05/25 09:54:28;;;;;;;6.82;5.05;;;;;;;;;;6171738;28;20054;-84
2023/05/25 09:57:30;;;;;;;6.30;4.80;;;;;;;;;;6169972;28;20051;-81
2023/05/25 10:00:33;;;;;;;7.45;4.75;;;;;;;;;;6171298;28;20121;-84
2023/05/25 10:03:35;;;;;;;5.65;4.78;;;;;;;;;;6169784;28;20105;-85
2023/05/25 10:06:38;;;;;;;9.02;5.20;;;;;;;;;;6171388;28;20062;-82
2023/05/25 10:09:41;;;;;;;8.55;5.07;;;;;;;;;;6168133;28;20051;-83
2023/05/25 10:12:44;;;;;;;7.00;4.73;;;;;;;;;;6171325;28;20058;-83
2023/05/25 10:15:48;;;;;;;14.20;4.80;;;;;;;;;;6168797;28;20438;-84
2023/05/25 10:19:01;;;;;;;5.05;4.50;;;;;;;;;;6175487;28;20094;-83
2023/05/25 10:22:06;;;;;;;7.15;4.15;;;;;;;;;;6169217;28;20105;-83
2023/05/25 10:25:10;;;;;;;6.00;4.38;;;;;;;;;;6172762;28;20059;-83
2023/05/25 10:28:15;;;;;;;4.28;3.70;;;;;;;;;;6170102;28;20050;-83
2023/05/25 10:31:18;;;;;;;5.93;3.97;;;;;;;;;;6169312;28;20059;-84
2023/05/25 10:34:23;;;;;;;5.90;3.92;;;;;;;;;;6169972;28;20058;-83
2023/05/25 10:37:26;;;;;;;5.05;4.25;;;;;;;;;;6170199;28;20057;-84
2023/05/25 10:40:28;;;;;;;6.57;4.65;;;;;;;;;;6170210;28;20830;-83
2023/05/25 10:43:30;;;;;;;7.95;4.10;;;;;;;;;;6172419;28;20090;-82
2023/05/25 10:46:33;;;;;;;5.10;4.33;;;;;;;;;;6195709;28;20271;-86
2023/05/25 10:49:51;;;;;;;8.90;4.85;;;;;;;;;;6191903;28;20069;-85
2023/05/25 10:53:00;;;;;;;7.63;4.55;;;;;;;;;;6194157;28;20232;-85
2023/05/25 10:56:03;;;;;;;6.50;4.72;;;;;;;;;;6192193;28;20054;-82
2023/05/25 10:59:04;;;;;;;8.90;4.57;;;;;;;;;;6195788;28;20112;-85
2023/05/25 11:02:07;;;;;;;5.18;4.65;;;;;;;;;;6192455;28;20278;-83
2023/05/25 11:05:32;;;;;;;8.20;4.82;;;;;;;;;;6194415;28;20045;-84
2023/05/25 11:08:48;;;;;;;8.68;5.57;;;;;;;;;;6194781;28;20361;-83
2023/05/25 11:12:05;;;;;;;6.20;5.28;;;;;;;;;;6197436;28;20195;-85
2023/05/25 11:15:14;;;;;;;7.05;5.60;;;;;;;;;;6197370;28;20047;-84
2023/05/25 11:18:17;;;;;;;8.45;5.50;;;;;;;;;;6200342;28;20054;-84
2023/05/25 11:21:39;;;;;;;7.00;5.57;;;;;;;;;;6199594;28;20075;-84
2023/05/25 11:24:42;;;;;;;7.18;6.25;;;;;;;;;;6195602;28;20231;-85
2023/05/25 11:27:46;;;;;;;7.43;5.43;;;;;;;;;;6196277;28;20344;-83
2023/05/25 11:30:48;;;;;;;14.50;7.90;;;;;;;;;;6195785;28;20361;-82
2023/05/25 11:33:56;;;;;;;9.73;6.73;;;;;;;;;;6192906;28;20054;-85
2023/05/25 11:37:00;;;;;;;7.10;6.40;;;;;;;;;;6195558;28;20114;-82
2023/05/25 11:40:07;;;;;;;8.65;6.85;;;;;;;;;;6194960;28;20373;-83
2023/05/25 11:43:09;;;;;;;9.68;7.68;;;;;;;;;;6196025;28;20051;-84
2023/05/25 11:46:11;;;;;;;8.48;7.50;;;;;;;;;;6196504;28;20054;-83
2023/05/25 11:49:14;;;;;;;12.83;8.37;;;;;;;;;;6196009;28;20242;-82
2023/05/25 11:52:17;;;;;;;13.18;8.65;;;;;;;;;;6193850;28;20054;-80
2023/05/25 11:55:18;;;;;;;11.05;7.80;;;;;;;;;;6181433;28;20140;-83
2023/05/25 11:58:20;;;;;;;23.88;9.65;;;;;;;;;;6172902;28;20121;-81
2023/05/25 12:01:23;;;;;;;19.95;9.13;;;;;;;;;;6174099;28;20047;-84
2023/05/25 12:04:27;;;;;;;6.47;5.55;;;;;;;;;;6197526;28;20066;-81
2023/05/25 12:07:30;;;;;;;8.93;6.82;;;;;;;;;;6175429;28;20067;-84
2023/05/25 12:10:32;;;;;;;7.88;6.60;;;;;;;;;;6171191;28;20235;-83
2023/05/25 12:13:33;;;;;;;6.85;6.15;;;;;;;;;;6172217;28;20190;-82
2023/05/25 12:16:37;;;;;;;8.32;5.97;;;;;;;;;;6174202;28;20106;-83
2023/05/25 12:19:40;;;;;;;8.20;6.82;;;;;;;;;;6170269;28;20121;-83
2023/05/25 12:22:42;;;;;;;;;;;;;;;;;;6172757;28;20256;-80
2023/05/25 12:25:43;;;;;;;9.00;7.57;;;;;;;;;;6173173;28;20114;-81
2023/05/25 12:28:58;;;;;;;16.05;7.55;;;;;;;;;;6171908;28;20279;-83
2023/05/25 12:32:04;;;;;;;8.13;7.32;;;;;;;;;;6170151;28;20106;-83
2023/05/25 12:35:08;;;;;;;10.30;7.07;;;;;;;;;;6173325;28;20051;-81
2023/05/25 12:38:09;;;;;;;7.65;6.82;;;;;;;;;;6171161;28;20062;-83
2023/05/25 12:41:11;;;;;;;9.87;7.60;;;;;;;;;;6170903;28;20213;-83
2023/05/25 12:44:24;;;;;;;9.27;6.43;;;;;;;;;;6169299;28;20047;-84
2023/05/25 12:47:27;;;;;;;9.02;6.30;;;;;;;;;;6171855;28;20055;-82
2023/05/25 12:50:30;;;;;;;11.52;7.57;;;;;;;;;;6172421;28;20068;-81
2023/05/25 12:53:32;;;;;;;8.68;6.35;;;;;;;;;;6172230;28;20066;-81
2023/05/25 12:56:34;;;;;;;7.88;6.80;;;;;;;;;;6173003;28;20047;-83
2023/05/25 12:59:36;;;;;;;10.60;6.68;;;;;;;;;;6172434;28;20381;-82
2023/05/25 13:02:38;;;;;;;8.55;6.60;;;;;;;;;;6169995;28;20046;-82
2023/05/25 13:05:41;;;;;;;9.38;5.68;;;;;;;;;;6173723;28;20049;-83
2023/05/25 13:08:42;;;;;;;5.57;4.72;;;;;;;;;;6173005;28;20039;-82
2023/05/25 13:11:44;;;;;;;7.75;6.60;;;;;;;;;;6173251;28;20077;-84
2023/05/25 13:14:46;;;;;;;7.45;6.05;;;;;;;;;;6168824;28;20062;-82
2023/05/25 13:17:49;;;;;;;6.40;5.80;;;;;;;;;;6171859;28;20086;-83
2023/05/25 13:20:52;;;;;;;10.35;5.82;;;;;;;;;;6170576;28;20054;-85
2023/05/25 13:23:54;;;;;;;5.55;4.95;;;;;;;;;;6173666;28;20049;-83
2023/05/25 13:26:56;;;;;;;10.07;5.80;;;;;;;;;;6171423;28;20066;-85
2023/05/25 13:29:58;;;;;;;7.77;5.80;;;;;;;;;;6171576;28;20050;-83
2023/05/25 13:32:59;;;;;;;6.63;5.03;;;;;;;;;;6171190;28;20136;-86
2023/05/25 13:36:07;;;;;;;5.13;4.63;;;;;;;;;;6184632;28;20122;-85
2023/05/25 13:39:12;;;;;;;8.57;6.05;;;;;;;;;;6168250;28;20474;-83
2023/05/25 13:42:13;;;;;;;7.47;5.18;;;;;;;;;;6169968;28;20101;-83
2023/05/25 13:45:15;;;;;;;6.13;5.10;;;;;;;;;;6168288;28;20058;-83
2023/05/25 13:48:17;;;;;;;6.27;5.10;;;;;;;;;;6168384;28;20097;-83
2023/05/25 13:51:20;;;;;;;7.73;5.60;;;;;;;;;;6169669;28;20339;-82
2023/05/25 13:54:22;;;;;;;6.45;4.85;;;;;;;;;;6168435;28;20054;-82
2023/05/25 13:57:23;;;;;;;;;;;;;;;;;;6171223;28;20055;-82
2023/05/25 14:00:26;;;;;;;6.35;5.57;;;;;;;;;;6196197;28;19996;-82
2023/05/25 14:03:27;;;;;;;5.68;4.80;;;;;;;;;;6194500;28;20089;-83
2023/05/25 14:06:30;;;;;;;8.13;5.70;;;;;;;;;;6196153;28;20054;-82
2023/05/25 14:09:32;;;;;;;9.18;5.70;;;;;;;;;;6193564;28;20109;-83
2023/05/25 14:12:34;;;;;;;7.72;4.50;;;;;;;;;;6193118;28;20331;-83
2023/05/25 14:15:35;;;;;;;4.85;3.83;;;;;;;;;;6194881;28;20054;-84
2023/05/25 14:18:37;;;;;;;6.75;4.35;;;;;;;;;;6195886;28;20047;-84
2023/05/25 14:21:40;;;;;;;4.30;3.90;;;;;;;;;;6196761;28;20295;-82
2023/05/25 14:24:42;;;;;;;5.00;4.13;;;;;;;;;;6195228;28;20117;-83
2023/05/25 14:27:44;;;;;;;4.40;4.00;;;;;;;;;;6192836;28;20140;-81
2023/05/25 14:30:46;;;;;;;4.13;3.67;;;;;;;;;;6183676;28;20102;-83
2023/05/25 14:33:47;;;;;;;4.90;3.60;;;;;;;;;;6172374;28;20050;-82
2023/05/25 14:36:51;;;;;;;6.03;4.80;;;;;;;;;;6169488;28;20335;-83
2023/05/25 14:39:52;;;;;;;6.10;5.05;;;;;;;;;;6169703;28;20051;-83
2023/05/25 14:42:55;;;;;;;4.80;3.57;;;;;;;;;;6171687;28;20098;-83
2023/05/25 14:45:56;;;;;;;5.32;3.88;;;;;;;;;;6184053;28;20086;-83
2023/05/25 14:48:58;;;;;;;4.73;4.20;;;;;;;;;;6170867;28;20057;-84
2023/05/25 14:52:01;;;;;;;4.55;4.10;;;;;;;;;;6170041;28;20335;-83
2023/05/25 14:55:03;;;;;;;4.35;3.50;;;;;;;;;;6167444;28;20343;-84
2023/05/25 14:58:04;;;;;;;7.82;4.47;;;;;;;;;;6169992;28;20074;-83
2023/05/25 15:01:06;;;;;;;4.82;3.25;;;;;;;;;;6168767;28;20103;-83
2023/05/25 15:04:08;;;;;;;4.70;3.72;;;;;;;;;;6168390;28;20043;-81
2023/05/25 15:07:11;;;;;;;4.95;3.90;;;;;;;;;;6169878;28;20079;-83
2023/05/25 15:10:12;;;;;;;;;;;;;;;;;;6168987;28;20058;-82
2023/05/25 15:13:14;;;;;;;7.22;3.22;;;;;;;;;;6170602;28;19934;-82
2023/05/25 15:16:16;;;;;;;7.78;3.63;;;;;;;;;;6175928;28;20142;-80
2023/05/25 15:19:18;;;;;;;6.40;4.20;;;;;;;;;;6193601;28;20239;-84
2023/05/25 15:22:21;;;;;;;7.22;3.53;;;;;;;;;;6190937;28;20129;-81
2023/05/25 15:25:23;;;;;;;7.35;4.50;;;;;;;;;;6192407;28;20426;-83
2023/05/25 15:28:25;;;;;;;6.57;4.40;;;;;;;;;;6192827;28;20381;-83
2023/05/25 15:31:26;;;;;;;6.40;4.45;;;;;;;;;;6193716;28;20113;-82
2023/05/25 15:34:28;;;;;;;7.40;4.22;;;;;;;;;;6192567;28;20050;-83
2023/05/25 15:37:31;;;;;;;6.43;4.30;;;;;;;;;;6189447;28;20075;-83
2023/05/25 15:40:32;;;;;;;;;;;;;;;;;;6193960;28;20082;-82
2023/05/25 15:43:34;;;;;;;8.60;4.82;;;;;;;;;;6191909;28;19984;-80
2023/05/25 15:46:35;;;;;;;9.05;6.07;;;;;;;;;;6195221;28;20057;-82
2023/05/25 15:49:37;;;;;;;6.80;5.40;;;;;;;;;;6191699;28;20345;-80
2023/05/25 15:52:40;;;;;;;8.65;4.85;;;;;;;;;;6193695;28;20050;-83
2023/05/25 15:55:42;;;;;;;5.97;5.13;;;;;;;;;;6195401;28;20062;-81
2023/05/25 15:58:47;;;;;;;6.82;5.38;;;;;;;;;;6196558;28;20361;-83
2023/05/25 16:01:49;;;;;;;6.35;4.75;;;;;;;;;;6196581;28;20124;-82
2023/05/25 16:04:50;;;;;;;7.20;4.97;;;;;;;;;;6197481;28;20062;-82
2023/05/25 16:07:53;;;;;;;5.95;4.53;;;;;;;;;;6195436;28;20062;-82
2023/05/25 16:10:55;;;;;;;5.78;4.07;;;;;;;;;;6198438;28;20107;-81
2023/05/25 16:13:57;;;;;;;4.68;3.97;;;;;;;;;;6197804;28;20058;-83
2023/05/25 16:16:59;;;;;;;6.95;4.90;;;;;;;;;;6198494;28;20105;-84
2023/05/25 16:20:00;;;;;;;7.50;5.75;;;;;;;;;;6196897;28;20101;-83
2023/05/25 16:23:03;;;;;;;7.00;4.70;;;;;;;;;;6195347;28;20315;-82
2023/05/25 16:26:07;;;;;;;9.57;5.20;;;;;;;;;;6196342;28;20050;-83
2023/05/25 16:29:08;;;;;;;7.97;4.93;;;;;;;;;;6195728;28;20254;-81
2023/05/25 16:32:10;;;;;;;6.03;4.65;;;;;;;;;;6197468;28;20058;-82
2023/05/25 16:35:12;;;;;;;7.95;4.40;;;;;;;;;;6196992;28;20050;-82
2023/05/25 16:38:15;;;;;;;6.13;4.75;;;;;;;;;;6196779;28;20243;-80
2023/05/25 16:41:16;;;;;;;;;;;;;;;;;;6194702;28;20334;-82
2023/05/25 16:44:18;;;;;;;5.82;4.65;;;;;;;;;;6197240;28;19944;-82
2023/05/25 16:47:20;;;;;;;7.40;4.10;;;;;;;;;;6195947;28;20216;-83
2023/05/25 16:50:22;;;;;;;6.15;4.55;;;;;;;;;;6198321;28;20068;-82
2023/05/25 16:53:25;;;;;;;6.47;4.88;;;;;;;;;;6196337;28;20322;-83
2023/05/25 16:56:26;;;;;;;6.85;4.40;;;;;;;;;;6196658;28;20329;-83
2023/05/25 16:59:28;;;;;;;6.70;4.57;;;;;;;;;;6193582;28;20366;-82
2023/05/25 17:02:29;;;;;;;6.85;4.90;;;;;;;;;;6195994;28;20054;-83
2023/05/25 17:05:31;;;;;;;6.32;4.53;;;;;;;;;;6196134;28;20073;-82
2023/05/25 17:08:35;;;;;;;9.82;5.70;;;;;;;;;;6194819;28;20338;-82
2023/05/25 17:11:36;;;;;;;6.38;4.97;;;;;;;;;;6194990;28;20053;-80
2023/05/25 17:14:38;;;;;;;5.25;4.22;;;;;;;;;;6192724;28;20101;-82
2023/05/25 17:17:40;;;;;;;8.43;4.13;;;;;;;;;;6194289;28;20054;-82
2023/05/25 17:20:41;;;;;;;6.10;4.20;;;;;;;;;;6197186;28;20411;-84
2023/05/25 17:23:46;;;;;;;7.40;4.65;;;;;;;;;;6196379;28;20066;-80
2023/05/25 17:26:48;;;;;;;11.30;4.80;;;;;;;;;;6195949;28;20093;-83
2023/05/25 17:29:50;;;;;;;8.38;5.05;;;;;;;;;;6194747;28;20314;-82
2023/05/25 17:32:52;;;;;;;10.73;4.97;;;;;;;;;;6195210;28;20290;-82
2023/05/25 17:35:54;;;;;;;7.43;5.30;;;;;;;;;;6196712;28;20050;-83
2023/05/25 17:38:57;;;;;;;10.85;4.85;;;;;;;;;;6188696;28;20073;-82
2023/05/25 17:41:59;;;;;;;8.73;4.88;;;;;;;;;;6192957;28;20046;-81
2023/05/25 17:45:00;;;;;;;10.65;5.40;;;;;;;;;;6193085;28;20065;-81
2023/05/25 17:48:02;;;;;;;5.95;4.90;;;;;;;;;;6192200;28;20085;-81
2023/05/25 17:51:04;;;;;;;11.10;5.47;;;;;;;;;;6193696;28;20062;-82
2023/05/25 17:54:07;;;;;;;6.75;4.78;;;;;;;;;;6189177;28;20065;-81
2023/05/25 17:57:09;;;;;;;7.68;5.20;;;;;;;;;;6192399;28;20278;-80
2023/05/25 18:00:13;;;;;;;12.70;4.85;;;;;;;;;;6192762;28;20287;-83
2023/05/25 18:03:14;;;;;;;6.35;4.68;;;;;;;;;;6195024;28;20335;-79
2023/05/25 18:06:17;;;;;;;8.70;5.43;;;;;;;;;;6192654;28;20109;-83
2023/05/25 18:09:20;;;;;;;6.10;4.40;;;;;;;;;;6196401;28;20097;-81
2023/05/25 18:12:22;;;;;;;8.25;4.90;;;;;;;;;;6195301;28;20141;-86
2023/05/25 18:15:23;;;;;;;7.70;5.35;;;;;;;;;;6191694;28;20381;-81